sensor_id;sensor_type;location;lat;lon;timestamp;pressure;altitude;pressure_sealevel;temperature;humidity
76592;BME280;65481;47.600;19.682;2022-12-07T00:03:22;100192.59;;;1.56;100.00
76592;BME280;65481;47.600;19.682;2022-12-07T00:08:22;100184.00;;;1.63;100.00
76592;BME280;65481;47.600;19.682;2022-12-07T00:13:23;100189.81;;;1.65;100.00
76592;BME280;65481;47.600;19.682;2022-12-07T00:18:24;100197.53;;;1.50;100.00
76592;BME280;65481;47.600;19.682;2022-12-07T00:23:24;100195.47;;;1.38;100.00
76592;BME280;65481;47.600;19.682;2022-12-07T00:28:25;100191.41;;;1.35;100.00
76592;BME280;65481;47.600;19.682;2022-12-07T00:33:25;100177.97;;;1.23;100.00
76592;BME280;65481;47.600;19.682;2022-12-07T00:38:30;100177.97;;;1.23;100.00
76592;BME280;65481;47.600;19.682;2022-12-07T00:43:32;100185.06;;;1.38;100.00
76592;BME280;65481;47.600;19.682;2022-12-07T00:48:33;100172.56;;;1.33;100.00
76592;BME280;65481;47.600;19.682;2022-12-07T00:53:35;100173.56;;;1.24;100.00
76592;BME280;65481;47.600;19.682;2022-12-07T00:58:35;100169.84;;;1.26;100.00
76592;BME280;65481;47.600;19.682;2022-12-07T01:03:36;100161.84;;;1.28;100.00
76592;BME280;65481;47.600;19.682;2022-12-07T01:08:37;100162.63;;;1.36;100.00
76592;BME280;65481;47.600;19.682;2022-12-07T01:13:37;100157.91;;;1.40;100.00
76592;BME280;65481;47.600;19.682;2022-12-07T01:18:39;100156.28;;;1.39;100.00
76592;BME280;65481;47.600;19.682;2022-12-07T01:23:40;100157.63;;;1.35;100.00
76592;BME280;65481;47.600;19.682;2022-12-07T01:28:40;100149.00;;;1.34;100.00
76592;BME280;65481;47.600;19.682;2022-12-07T01:33:42;100147.56;;;1.24;100.00
76592;BME280;65481;47.600;19.682;2022-12-07T01:38:43;100141.31;;;1.01;100.00
76592;BME280;65481;47.600;19.682;2022-12-07T01:54:22;100120.13;;;0.73;100.00
76592;BME280;65481;47.600;19.682;2022-12-07T01:59:24;100117.50;;;0.65;100.00
76592;BME280;65481;47.600;19.682;2022-12-07T02:04:26;100124.53;;;0.48;100.00
76592;BME280;65481;47.600;19.682;2022-12-07T02:09:26;100114.66;;;0.43;100.00
76592;BME280;65481;47.600;19.682;2022-12-07T02:14:27;100119.84;;;0.43;100.00
76592;BME280;65481;47.600;19.682;2022-12-07T02:25:12;100128.59;;;0.42;100.00
76592;BME280;65481;47.600;19.682;2022-12-07T02:30:19;100121.75;;;0.49;100.00
76592;BME280;65481;47.600;19.682;2022-12-07T02:35:33;100130.19;;;0.59;100.00
76592;BME280;65481;47.600;19.682;2022-12-07T02:40:55;100134.09;;;0.55;100.00
76592;BME280;65481;47.600;19.682;2022-12-07T02:46:02;100124.84;;;0.53;100.00
76592;BME280;65481;47.600;19.682;2022-12-07T02:51:05;100120.13;;;0.56;100.00
76592;BME280;65481;47.600;19.682;2022-12-07T03:06:57;100125.00;;;0.59;100.00
76592;BME280;65481;47.600;19.682;2022-12-07T03:12:19;100127.75;;;0.66;100.00
76592;BME280;65481;47.600;19.682;2022-12-07T03:17:27;100123.69;;;0.72;100.00
76592;BME280;65481;47.600;19.682;2022-12-07T03:22:31;100120.56;;;0.77;100.00
76592;BME280;65481;47.600;19.682;2022-12-07T03:27:38;100112.63;;;0.78;100.00
76592;BME280;65481;47.600;19.682;2022-12-07T03:32:50;100124.31;;;0.74;100.00
76592;BME280;65481;47.600;19.682;2022-12-07T03:38:00;100117.19;;;0.76;100.00
76592;BME280;65481;47.600;19.682;2022-12-07T03:43:04;100112.63;;;0.78;100.00
76592;BME280;65481;47.600;19.682;2022-12-07T03:48:13;100108.88;;;0.81;100.00
76592;BME280;65481;47.600;19.682;2022-12-07T03:53:22;100119.28;;;0.81;100.00
76592;BME280;65481;47.600;19.682;2022-12-07T03:58:25;100114.53;;;0.93;100.00
76592;BME280;65481;47.600;19.682;2022-12-07T04:03:25;100105.91;;;1.00;100.00
76592;BME280;65481;47.600;19.682;2022-12-07T04:08:26;100110.09;;;1.10;100.00
76592;BME280;65481;47.600;19.682;2022-12-07T04:13:26;100115.44;;;1.16;100.00
76592;BME280;65481;47.600;19.682;2022-12-07T04:18:27;100103.91;;;1.11;100.00
76592;BME280;65481;47.600;19.682;2022-12-07T04:23:27;100112.88;;;1.08;100.00
76592;BME280;65481;47.600;19.682;2022-12-07T04:28:28;100117.09;;;1.09;100.00
76592;BME280;65481;47.600;19.682;2022-12-07T04:33:29;100124.09;;;1.09;100.00
76592;BME280;65481;47.600;19.682;2022-12-07T04:38:29;100120.94;;;1.21;100.00
76592;BME280;65481;47.600;19.682;2022-12-07T04:43:29;100128.38;;;1.33;100.00
76592;BME280;65481;47.600;19.682;2022-12-07T04:48:30;100124.09;;;1.40;100.00
76592;BME280;65481;47.600;19.682;2022-12-07T04:53:31;100124.63;;;1.35;100.00
76592;BME280;65481;47.600;19.682;2022-12-07T04:58:31;100122.19;;;1.34;100.00
76592;BME280;65481;47.600;19.682;2022-12-07T05:03:31;100127.34;;;1.42;100.00
76592;BME280;65481;47.600;19.682;2022-12-07T05:08:33;100121.94;;;1.52;100.00
76592;BME280;65481;47.600;19.682;2022-12-07T05:13:34;100118.31;;;1.61;100.00
76592;BME280;65481;47.600;19.682;2022-12-07T05:18:35;100121.69;;;1.70;100.00
76592;BME280;65481;47.600;19.682;2022-12-07T05:23:35;100120.63;;;1.79;100.00
76592;BME280;65481;47.600;19.682;2022-12-07T05:28:36;100109.38;;;1.87;100.00
76592;BME280;65481;47.600;19.682;2022-12-07T05:33:36;100108.16;;;1.98;100.00
76592;BME280;65481;47.600;19.682;2022-12-07T05:38:37;100112.66;;;2.04;100.00
76592;BME280;65481;47.600;19.682;2022-12-07T05:43:37;100107.91;;;2.08;100.00
76592;BME280;65481;47.600;19.682;2022-12-07T05:48:38;100101.19;;;2.14;100.00
76592;BME280;65481;47.600;19.682;2022-12-07T05:53:38;100110.91;;;2.20;100.00
76592;BME280;65481;47.600;19.682;2022-12-07T05:58:39;100104.53;;;2.22;100.00
76592;BME280;65481;47.600;19.682;2022-12-07T06:03:58;100108.59;;;2.25;100.00
76592;BME280;65481;47.600;19.682;2022-12-07T06:08:58;100122.72;;;2.31;100.00
76592;BME280;65481;47.600;19.682;2022-12-07T06:13:59;100122.03;;;2.37;100.00
76592;BME280;65481;47.600;19.682;2022-12-07T06:18:59;100127.31;;;2.44;100.00
76592;BME280;65481;47.600;19.682;2022-12-07T06:24:00;100121.75;;;2.47;100.00
76592;BME280;65481;47.600;19.682;2022-12-07T06:29:02;100122.91;;;2.44;100.00
76592;BME280;65481;47.600;19.682;2022-12-07T06:34:09;100121.28;;;2.28;100.00
76592;BME280;65481;47.600;19.682;2022-12-07T06:39:09;100125.84;;;2.26;100.00
76592;BME280;65481;47.600;19.682;2022-12-07T06:44:10;100131.91;;;2.41;100.00
76592;BME280;65481;47.600;19.682;2022-12-07T06:49:11;100127.44;;;2.50;100.00
76592;BME280;65481;47.600;19.682;2022-12-07T06:54:13;100129.84;;;2.52;100.00
76592;BME280;65481;47.600;19.682;2022-12-07T06:59:14;100128.94;;;2.45;100.00
76592;BME280;65481;47.600;19.682;2022-12-07T07:04:14;100127.47;;;2.27;100.00
76592;BME280;65481;47.600;19.682;2022-12-07T07:09:15;100118.69;;;2.28;100.00
76592;BME280;65481;47.600;19.682;2022-12-07T07:14:15;100120.75;;;2.33;100.00
76592;BME280;65481;47.600;19.682;2022-12-07T07:19:19;100121.47;;;2.41;100.00
76592;BME280;65481;47.600;19.682;2022-12-07T07:24:19;100120.06;;;2.54;100.00
76592;BME280;65481;47.600;19.682;2022-12-07T07:29:20;100129.59;;;2.62;100.00
76592;BME280;65481;47.600;19.682;2022-12-07T07:34:20;100129.88;;;2.67;100.00
76592;BME280;65481;47.600;19.682;2022-12-07T07:39:21;100134.19;;;2.75;100.00
76592;BME280;65481;47.600;19.682;2022-12-07T07:44:21;100129.72;;;2.83;100.00
76592;BME280;65481;47.600;19.682;2022-12-07T07:49:22;100135.84;;;2.91;100.00
76592;BME280;65481;47.600;19.682;2022-12-07T07:54:22;100134.56;;;3.01;100.00
76592;BME280;65481;47.600;19.682;2022-12-07T07:59:23;100135.47;;;3.09;100.00
76592;BME280;65481;47.600;19.682;2022-12-07T08:04:25;100140.84;;;3.22;100.00
76592;BME280;65481;47.600;19.682;2022-12-07T08:09:26;100146.31;;;3.27;100.00
76592;BME280;65481;47.600;19.682;2022-12-07T08:14:26;100142.38;;;3.31;100.00
76592;BME280;65481;47.600;19.682;2022-12-07T08:19:27;100144.69;;;3.41;100.00
76592;BME280;65481;47.600;19.682;2022-12-07T08:24:28;100151.25;;;3.52;100.00
76592;BME280;65481;47.600;19.682;2022-12-07T08:29:29;100150.88;;;3.55;100.00
76592;BME280;65481;47.600;19.682;2022-12-07T08:34:29;100157.16;;;3.61;100.00
76592;BME280;65481;47.600;19.682;2022-12-07T08:39:30;100148.69;;;3.74;100.00
76592;BME280;65481;47.600;19.682;2022-12-07T08:44:30;100149.06;;;3.92;100.00
76592;BME280;65481;47.600;19.682;2022-12-07T08:49:33;100155.59;;;4.03;100.00
76592;BME280;65481;47.600;19.682;2022-12-07T08:54:38;100150.31;;;4.18;100.00
76592;BME280;65481;47.600;19.682;2022-12-07T08:59:39;100145.06;;;4.40;100.00
76592;BME280;65481;47.600;19.682;2022-12-07T09:04:40;100144.78;;;4.57;100.00
76592;BME280;65481;47.600;19.682;2022-12-07T09:09:40;100145.91;;;4.76;100.00
76592;BME280;65481;47.600;19.682;2022-12-07T09:14:41;100145.69;;;4.99;100.00
76592;BME280;65481;47.600;19.682;2022-12-07T09:19:43;100141.84;;;5.43;100.00
76592;BME280;65481;47.600;19.682;2022-12-07T09:24:43;100142.97;;;5.89;100.00
76592;BME280;65481;47.600;19.682;2022-12-07T09:29:45;100145.47;;;6.11;100.00
76592;BME280;65481;47.600;19.682;2022-12-07T09:34:46;100142.84;;;6.18;100.00
76592;BME280;65481;47.600;19.682;2022-12-07T09:39:46;100137.03;;;6.43;100.00
76592;BME280;65481;47.600;19.682;2022-12-07T09:44:47;100131.94;;;6.75;100.00
76592;BME280;65481;47.600;19.682;2022-12-07T09:49:48;100127.47;;;6.95;100.00
76592;BME280;65481;47.600;19.682;2022-12-07T09:54:49;100125.25;;;6.92;100.00
76592;BME280;65481;47.600;19.682;2022-12-07T09:59:50;100119.34;;;7.10;100.00
76592;BME280;65481;47.600;19.682;2022-12-07T10:04:51;100127.00;;;7.12;100.00
76592;BME280;65481;47.600;19.682;2022-12-07T10:09:51;100108.63;;;7.12;100.00
76592;BME280;65481;47.600;19.682;2022-12-07T10:15:04;100107.03;;;7.11;100.00
76592;BME280;65481;47.600;19.682;2022-12-07T10:20:15;100103.94;;;7.27;100.00
76592;BME280;65481;47.600;19.682;2022-12-07T10:25:20;100098.44;;;7.36;99.98
76592;BME280;65481;47.600;19.682;2022-12-07T10:30:21;100098.78;;;7.46;98.13
76592;BME280;65481;47.600;19.682;2022-12-07T10:35:28;100093.47;;;8.42;93.55
76592;BME280;65481;47.600;19.682;2022-12-07T10:40:32;100091.28;;;9.63;87.21
76592;BME280;65481;47.600;19.682;2022-12-07T10:45:35;100091.94;;;8.78;89.20
76592;BME280;65481;47.600;19.682;2022-12-07T10:50:55;100082.78;;;8.62;88.09
76592;BME280;65481;47.600;19.682;2022-12-07T11:01:31;100068.78;;;10.03;81.40
76592;BME280;65481;47.600;19.682;2022-12-07T11:12:26;100065.72;;;10.18;80.24
76592;BME280;65481;47.600;19.682;2022-12-07T11:17:42;100074.03;;;9.67;79.27
76592;BME280;65481;47.600;19.682;2022-12-07T11:23:00;100078.63;;;9.95;74.59
76592;BME280;65481;47.600;19.682;2022-12-07T11:34:36;100058.97;;;8.76;76.34
76592;BME280;65481;47.600;19.682;2022-12-07T11:39:52;100054.56;;;8.88;76.44
76592;BME280;65481;47.600;19.682;2022-12-07T11:45:23;100043.72;;;8.66;77.62
76592;BME280;65481;47.600;19.682;2022-12-07T11:56:03;100028.19;;;9.26;75.80
76592;BME280;65481;47.600;19.682;2022-12-07T12:06:15;100034.00;;;8.41;78.06
76592;BME280;65481;47.600;19.682;2022-12-07T12:17:32;100031.09;;;7.55;82.92
76592;BME280;65481;47.600;19.682;2022-12-07T12:22:18;100045.22;;;7.22;86.29
76592;BME280;65481;47.600;19.682;2022-12-07T12:27:33;100035.03;;;6.93;89.41
76592;BME280;65481;47.600;19.682;2022-12-07T12:47:57;100020.03;;;8.22;89.21
76592;BME280;65481;47.600;19.682;2022-12-07T12:53:19;100015.88;;;8.33;83.73
76592;BME280;65481;47.600;19.682;2022-12-07T12:58:22;100019.91;;;8.36;82.87
76592;BME280;65481;47.600;19.682;2022-12-07T13:03:29;100025.88;;;8.24;81.11
76592;BME280;65481;47.600;19.682;2022-12-07T13:08:30;100029.81;;;8.15;81.88
76592;BME280;65481;47.600;19.682;2022-12-07T13:13:33;100034.22;;;7.96;82.51
76592;BME280;65481;47.600;19.682;2022-12-07T13:28:47;100052.59;;;7.70;83.23
76592;BME280;65481;47.600;19.682;2022-12-07T13:33:48;100039.44;;;7.45;85.09
76592;BME280;65481;47.600;19.682;2022-12-07T13:38:51;100044.19;;;7.23;86.34
76592;BME280;65481;47.600;19.682;2022-12-07T13:44:09;100037.03;;;6.98;87.07
76592;BME280;65481;47.600;19.682;2022-12-07T13:54:22;100059.97;;;6.50;89.05
76592;BME280;65481;47.600;19.682;2022-12-07T13:59:24;100061.22;;;6.34;90.66
76592;BME280;65481;47.600;19.682;2022-12-07T14:09:31;100058.19;;;6.31;90.89
76592;BME280;65481;47.600;19.682;2022-12-07T14:14:32;100057.81;;;6.20;90.02
76592;BME280;65481;47.600;19.682;2022-12-07T14:24:45;100063.81;;;5.81;90.43
76592;BME280;65481;47.600;19.682;2022-12-07T14:29:45;100061.34;;;5.59;90.19
76592;BME280;65481;47.600;19.682;2022-12-07T14:34:54;100065.97;;;5.43;89.19
76592;BME280;65481;47.600;19.682;2022-12-07T14:39:55;100055.66;;;5.28;89.90
76592;BME280;65481;47.600;19.682;2022-12-07T14:44:57;100068.88;;;5.07;90.43
76592;BME280;65481;47.600;19.682;2022-12-07T14:49:58;100075.22;;;4.91;90.91
76592;BME280;65481;47.600;19.682;2022-12-07T14:54:58;100078.53;;;4.71;91.33
76592;BME280;65481;47.600;19.682;2022-12-07T14:59:59;100074.00;;;4.51;92.02
76592;BME280;65481;47.600;19.682;2022-12-07T15:04:59;100085.78;;;4.40;91.79
76592;BME280;65481;47.600;19.682;2022-12-07T15:10:00;100076.44;;;4.24;92.23
76592;BME280;65481;47.600;19.682;2022-12-07T15:15:01;100074.00;;;4.23;92.10
76592;BME280;65481;47.600;19.682;2022-12-07T15:20:02;100080.13;;;4.08;93.11
76592;BME280;65481;47.600;19.682;2022-12-07T15:25:04;100072.13;;;3.88;93.94
76592;BME280;65481;47.600;19.682;2022-12-07T15:30:06;100087.78;;;3.67;94.72
76592;BME280;65481;47.600;19.682;2022-12-07T15:35:07;100084.22;;;3.53;95.50
76592;BME280;65481;47.600;19.682;2022-12-07T15:40:08;100095.22;;;3.33;96.43
76592;BME280;65481;47.600;19.682;2022-12-07T15:45:09;100104.72;;;3.19;97.04
76592;BME280;65481;47.600;19.682;2022-12-07T15:50:13;100109.38;;;3.09;97.58
76592;BME280;65481;47.600;19.682;2022-12-07T15:55:14;100118.47;;;2.98;98.13
76592;BME280;65481;47.600;19.682;2022-12-07T16:00:14;100119.09;;;2.85;98.70
76592;BME280;65481;47.600;19.682;2022-12-07T16:05:15;100112.00;;;2.79;99.25
76592;BME280;65481;47.600;19.682;2022-12-07T16:10:16;100120.97;;;2.76;99.52
76592;BME280;65481;47.600;19.682;2022-12-07T16:15:16;100117.56;;;2.76;99.15
76592;BME280;65481;47.600;19.682;2022-12-07T16:20:17;100118.84;;;2.80;99.19
76592;BME280;65481;47.600;19.682;2022-12-07T16:25:17;100115.31;;;2.72;98.96
76592;BME280;65481;47.600;19.682;2022-12-07T16:30:18;100125.31;;;2.69;99.19
76592;BME280;65481;47.600;19.682;2022-12-07T16:35:19;100121.78;;;2.62;99.45
76592;BME280;65481;47.600;19.682;2022-12-07T16:40:19;100122.53;;;2.32;100.00
76592;BME280;65481;47.600;19.682;2022-12-07T16:45:20;100133.81;;;2.24;100.00
76592;BME280;65481;47.600;19.682;2022-12-07T16:50:20;100137.69;;;2.29;100.00
76592;BME280;65481;47.600;19.682;2022-12-07T16:55:21;100145.69;;;2.27;100.00
76592;BME280;65481;47.600;19.682;2022-12-07T17:00:21;100140.72;;;2.17;100.00
76592;BME280;65481;47.600;19.682;2022-12-07T17:05:22;100143.06;;;2.04;100.00
76592;BME280;65481;47.600;19.682;2022-12-07T17:10:24;100132.41;;;1.99;100.00
76592;BME280;65481;47.600;19.682;2022-12-07T17:15:25;100136.25;;;1.79;100.00
76592;BME280;65481;47.600;19.682;2022-12-07T17:20:27;100140.91;;;1.61;100.00
76592;BME280;65481;47.600;19.682;2022-12-07T17:25:27;100134.72;;;1.62;100.00
76592;BME280;65481;47.600;19.682;2022-12-07T17:30:28;100132.75;;;1.64;100.00
76592;BME280;65481;47.600;19.682;2022-12-07T17:35:29;100139.25;;;1.68;100.00
76592;BME280;65481;47.600;19.682;2022-12-07T17:40:29;100141.03;;;1.67;100.00
76592;BME280;65481;47.600;19.682;2022-12-07T17:45:30;100143.16;;;1.64;100.00
76592;BME280;65481;47.600;19.682;2022-12-07T17:50:31;100144.03;;;1.56;100.00
76592;BME280;65481;47.600;19.682;2022-12-07T17:55:52;100137.75;;;1.42;100.00
76592;BME280;65481;47.600;19.682;2022-12-07T18:00:53;100148.47;;;1.39;100.00
76592;BME280;65481;47.600;19.682;2022-12-07T18:05:54;100142.78;;;1.44;100.00
76592;BME280;65481;47.600;19.682;2022-12-07T18:10:59;100152.22;;;1.36;100.00
76592;BME280;65481;47.600;19.682;2022-12-07T18:15:59;100167.38;;;1.33;100.00
76592;BME280;65481;47.600;19.682;2022-12-07T18:21:13;100174.84;;;1.28;100.00
76592;BME280;65481;47.600;19.682;2022-12-07T18:26:17;100165.75;;;1.24;100.00
76592;BME280;65481;47.600;19.682;2022-12-07T18:31:19;100165.94;;;1.22;100.00
76592;BME280;65481;47.600;19.682;2022-12-07T18:36:21;100166.06;;;1.29;100.00
76592;BME280;65481;47.600;19.682;2022-12-07T18:41:22;100168.00;;;1.35;100.00
76592;BME280;65481;47.600;19.682;2022-12-07T18:46:23;100167.84;;;1.28;100.00
76592;BME280;65481;47.600;19.682;2022-12-07T18:51:26;100169.31;;;1.31;100.00
76592;BME280;65481;47.600;19.682;2022-12-07T18:56:27;100180.38;;;1.25;100.00
76592;BME280;65481;47.600;19.682;2022-12-07T19:01:29;100176.06;;;0.92;100.00
76592;BME280;65481;47.600;19.682;2022-12-07T19:06:31;100178.38;;;0.79;100.00
76592;BME280;65481;47.600;19.682;2022-12-07T19:11:33;100176.94;;;0.76;100.00
76592;BME280;65481;47.600;19.682;2022-12-07T19:16:52;100178.25;;;0.64;100.00
76592;BME280;65481;47.600;19.682;2022-12-07T19:21:53;100181.97;;;0.53;100.00
76592;BME280;65481;47.600;19.682;2022-12-07T19:26:54;100172.56;;;0.52;100.00
76592;BME280;65481;47.600;19.682;2022-12-07T19:31:56;100175.47;;;0.49;100.00
76592;BME280;65481;47.600;19.682;2022-12-07T19:36:57;100171.91;;;0.50;100.00
76592;BME280;65481;47.600;19.682;2022-12-07T19:41:58;100176.94;;;0.51;100.00
76592;BME280;65481;47.600;19.682;2022-12-07T19:47:00;100174.00;;;0.54;100.00
76592;BME280;65481;47.600;19.682;2022-12-07T19:52:04;100173.38;;;0.52;100.00
76592;BME280;65481;47.600;19.682;2022-12-07T19:57:06;100177.59;;;0.53;100.00
76592;BME280;65481;47.600;19.682;2022-12-07T20:02:11;100188.63;;;0.47;100.00
76592;BME280;65481;47.600;19.682;2022-12-07T20:07:12;100182.28;;;0.41;100.00
76592;BME280;65481;47.600;19.682;2022-12-07T20:12:14;100192.53;;;0.43;100.00
76592;BME280;65481;47.600;19.682;2022-12-07T20:17:33;100198.38;;;0.45;100.00
76592;BME280;65481;47.600;19.682;2022-12-07T20:22:34;100196.25;;;0.40;100.00
76592;BME280;65481;47.600;19.682;2022-12-07T20:27:35;100198.19;;;0.38;100.00
76592;BME280;65481;47.600;19.682;2022-12-07T20:32:36;100203.22;;;0.32;100.00
76592;BME280;65481;47.600;19.682;2022-12-07T20:37:38;100205.28;;;0.20;100.00
76592;BME280;65481;47.600;19.682;2022-12-07T20:42:39;100199.78;;;-0.02;100.00
76592;BME280;65481;47.600;19.682;2022-12-07T20:47:40;100202.50;;;-0.04;100.00
76592;BME280;65481;47.600;19.682;2022-12-07T20:52:41;100195.03;;;-0.07;100.00
76592;BME280;65481;47.600;19.682;2022-12-07T20:57:41;100195.25;;;0.00;100.00
76592;BME280;65481;47.600;19.682;2022-12-07T21:02:44;100199.78;;;-0.02;100.00
76592;BME280;65481;47.600;19.682;2022-12-07T21:07:44;100205.28;;;-0.05;100.00
76592;BME280;65481;47.600;19.682;2022-12-07T21:12:45;100205.28;;;-0.05;100.00
76592;BME280;65481;47.600;19.682;2022-12-07T21:17:45;100207.88;;;-0.05;100.00
76592;BME280;65481;47.600;19.682;2022-12-07T21:22:46;100206.72;;;-0.03;100.00
76592;BME280;65481;47.600;19.682;2022-12-07T21:27:47;100209.50;;;0.04;100.00
76592;BME280;65481;47.600;19.682;2022-12-07T21:32:47;100223.78;;;0.08;100.00
76592;BME280;65481;47.600;19.682;2022-12-07T21:37:47;100221.19;;;0.08;100.00
76592;BME280;65481;47.600;19.682;2022-12-07T21:42:52;100219.56;;;-0.01;100.00
76592;BME280;65481;47.600;19.682;2022-12-07T21:47:52;100225.50;;;-0.17;100.00
76592;BME280;65481;47.600;19.682;2022-12-07T21:52:53;100229.59;;;-0.49;100.00
76592;BME280;65481;47.600;19.682;2022-12-07T21:57:53;100234.06;;;-0.59;100.00
76592;BME280;65481;47.600;19.682;2022-12-07T22:02:54;100230.09;;;-0.46;100.00
76592;BME280;65481;47.600;19.682;2022-12-07T22:07:54;100227.06;;;-0.33;100.00
76592;BME280;65481;47.600;19.682;2022-12-07T22:12:58;100224.03;;;-0.20;100.00
76592;BME280;65481;47.600;19.682;2022-12-07T22:17:59;100216.44;;;-0.13;100.00
76592;BME280;65481;47.600;19.682;2022-12-07T22:22:59;100217.28;;;-0.04;100.00
76592;BME280;65481;47.600;19.682;2022-12-07T22:28:00;100209.81;;;0.01;100.00
76592;BME280;65481;47.600;19.682;2022-12-07T22:33:01;100212.09;;;0.04;100.00
76592;BME280;65481;47.600;19.682;2022-12-07T22:38:01;100212.25;;;0.03;100.00
76592;BME280;65481;47.600;19.682;2022-12-07T22:43:01;100212.75;;;-0.02;100.00
76592;BME280;65481;47.600;19.682;2022-12-07T22:48:02;100221.44;;;-0.11;100.00
76592;BME280;65481;47.600;19.682;2022-12-07T22:53:02;100223.38;;;-0.13;100.00
76592;BME280;65481;47.600;19.682;2022-12-07T22:58:04;100222.84;;;-0.25;100.00
76592;BME280;65481;47.600;19.682;2022-12-07T23:03:04;100218.16;;;-0.30;100.00
76592;BME280;65481;47.600;19.682;2022-12-07T23:08:05;100218.25;;;-0.48;100.00
76592;BME280;65481;47.600;19.682;2022-12-07T23:13:05;100209.09;;;-0.61;100.00
76592;BME280;65481;47.600;19.682;2022-12-07T23:18:25;100202.19;;;-0.52;100.00
76592;BME280;65481;47.600;19.682;2022-12-07T23:23:25;100196.69;;;-0.49;100.00
76592;BME280;65481;47.600;19.682;2022-12-07T23:28:26;100200.09;;;-0.48;100.00
76592;BME280;65481;47.600;19.682;2022-12-07T23:33:26;100206.81;;;-0.64;100.00
76592;BME280;65481;47.600;19.682;2022-12-07T23:38:27;100187.31;;;-0.84;100.00
76592;BME280;65481;47.600;19.682;2022-12-07T23:43:27;100191.06;;;-0.79;100.00
76592;BME280;65481;47.600;19.682;2022-12-07T23:48:27;100195.06;;;-0.84;100.00
76592;BME280;65481;47.600;19.682;2022-12-07T23:53:31;100192.50;;;-0.76;100.00
76592;BME280;65481;47.600;19.682;2022-12-07T23:58:32;100200.09;;;-0.83;100.00
